METAR Formatted Surface Weather Observation
Issued by NWS

Home | Current Version | Previous Version | Text Only | Print | Product List | Glossary On
Versions: 1 2 3 4 5 6 7 8 9 10 11 12 13
000
SAUS44 KCRP 290004 COR
MTRNGP
METAR KNGP 282356Z 07014KT 10SM FEW045 FEW065 SCT250 31/24 A2986 RMK
AO2 SLP110 CB DSNT N-NE T03060244 10350 20306 55006 $



USA.gov is the U.S. government's official web portal to all federal, state and local government web resources and services.